Time;durP1;ratioP1;P1;durP2;ratioP2;P2;SDS_P1;SDS_P2;PMS_P1;PMS_P2;Temp;Humidity;BMP_temperature;BMP_pressure;BME280_temperature;BME280_humidity;BME280_pressure;Samples;Min_cycle;Max_cycle;Signal;HPM_P1;HPM_P2
2023/01/18 00:01:52;;;;;;;;;;;;;;;;;;5035987;28;19932;-76
2023/01/18 00:04:18;;;;;;;;;;;;;;;;;;5036044;28;19936;-75
2023/01/18 00:06:44;;;;;;;;;;;;;;;;;;5035891;28;20286;-75
2023/01/18 00:09:11;;;;;;;;;;;;;;;;;;5035865;28;19909;-75
2023/01/18 00:11:37;;;;;;;;;;;;;;;;;;5035701;28;20000;-76
2023/01/18 00:14:03;;;;;;;;;;;;;;;;;;5035745;28;20372;-76
2023/01/18 00:16:32;;;;;;;;;;;;;;;;;;5036005;28;20357;-76
2023/01/18 00:18:58;;;;;;;;;;;;;;;;;;5035601;28;20361;-76
2023/01/18 00:21:24;;;;;;;;;;;;;;;;;;5035750;28;19996;-76
2023/01/18 00:23:50;;;;;;;;;;;;;;;;;;5035541;28;20389;-76
2023/01/18 00:26:16;;;;;;;;;;;;;;;;;;5035453;28;19952;-76
2023/01/18 00:28:42;;;;;;;;;;;;;;;;;;5035644;28;19909;-77
2023/01/18 00:31:07;;;;;;;;;;;;;;;;;;5034057;28;19916;-77
2023/01/18 00:33:33;;;;;;;;;;;;;;;;;;5035557;28;19910;-75
2023/01/18 00:35:59;;;;;;;;;;;;;;;;;;5035374;28;19955;-77
2023/01/18 00:38:25;;;;;;;;;;;;;;;;;;5035462;28;19909;-76
2023/01/18 00:40:51;;;;;;;;;;;;;;;;;;5033476;28;19921;-77
2023/01/18 00:46:02;;;;;;;;;;;;;;;;;;5034822;28;19923;-76
2023/01/18 00:48:28;;;;;;;;;;;;;;;;;;5035025;28;20000;-76
2023/01/18 00:50:54;;;;;;;;;;;;;;;;;;5035183;28;19910;-77
2023/01/18 00:53:19;;;;;;;;;;;;;;;;;;5034421;28;19909;-77
2023/01/18 00:55:48;;;;;;;;;;;;;;;;;;5034894;28;19962;-76
2023/01/18 00:58:14;;;;;;;;;;;;;;;;;;5033501;28;19939;-76
2023/01/18 01:00:40;;;;;;;;;;;;;;;;;;5035159;28;20003;-76
2023/01/18 01:03:06;;;;;;;;;;;;;;;;;;5033359;28;19913;-77
2023/01/18 01:08:17;;;;;;;;;;;;;;;;;;5034394;28;20300;-76
2023/01/18 01:10:44;;;;;;;;;;;;;;;;;;5034621;28;19910;-77
2023/01/18 01:26:53;;;;;;;;;;;;;;;;;;5034057;28;19916;-76
2023/01/18 01:29:19;;;;;;;;;;;;;;;;;;5034433;28;19909;-77
2023/01/18 01:31:45;;;;;;;;;;;;;;;;;;5034462;28;19909;-76
2023/01/18 01:34:11;;;;;;;;;;;;;;;;;;5034249;28;20004;-76
2023/01/18 01:36:36;;;;;;;;;;;;;;;;;;5034190;28;20343;-76
2023/01/18 01:39:02;;;;;;;;;;;;;;;;;;5034131;28;20020;-76
2023/01/18 01:41:28;;;;;;;;;;;;;;;;;;5034421;28;19917;-76
2023/01/18 01:43:54;;;;;;;;;;;;;;;;;;5034061;28;20050;-76
2023/01/18 01:46:20;;;;;;;;;;;;;;;;;;5034043;28;19978;-77
2023/01/18 01:48:46;;;;;;;;;;;;;;;;;;5033930;28;20432;-76
2023/01/18 01:51:12;;;;;;;;;;;;;;;;;;5033932;28;19909;-76
2023/01/18 01:53:38;;;;;;;;;;;;;;;;;;5034074;28;19948;-76
2023/01/18 01:56:04;;;;;;;;;;;;;;;;;;5033907;28;19916;-76
2023/01/18 01:58:30;;;;;;;;;;;;;;;;;;5032594;28;19913;-75
2023/01/18 02:00:56;;;;;;;;;;;;;;;;;;5033826;28;19920;-76
2023/01/18 02:03:22;;;;;;;;;;;;;;;;;;5033972;28;19913;-76
2023/01/18 02:05:48;;;;;;;;;;;;;;;;;;5033007;28;19913;-76
2023/01/18 02:08:21;;;;;;;;;;;;;;;;;;5033987;28;20009;-76
2023/01/18 02:10:47;;;;;;;;;;;;;;;;;;5032182;28;19913;-76
2023/01/18 02:13:12;;;;;;;;;;;;;;;;;;5033793;28;20319;-76
2023/01/18 02:15:38;;;;;;;;;;;;;;;;;;5033664;28;20430;-76
2023/01/18 02:18:04;;;;;;;;;;;;;;;;;;5033702;28;19940;-76
2023/01/18 02:20:30;;;;;;;;;;;;;;;;;;5033561;28;19956;-75
2023/01/18 02:22:56;;;;;;;;;;;;;;;;;;5033749;28;19913;-76
2023/01/18 02:25:23;;;;;;;;;;;;;;;;;;5033500;28;19913;-75
2023/01/18 02:27:48;;;;;;;;;;;;;;;;;;5033563;28;19910;-76
2023/01/18 02:30:14;;;;;;;;;;;;;;;;;;5033556;28;20361;-76
2023/01/18 02:32:40;;;;;;;;;;;;;;;;;;5033856;28;19915;-76
2023/01/18 02:35:06;;;;;;;;;;;;;;;;;;5033454;28;19963;-76
2023/01/18 02:37:32;;;;;;;;;;;;;;;;;;5033507;28;19971;-76
2023/01/18 02:39:58;;;;;;;;;;;;;;;;;;5031843;28;19966;-76
2023/01/18 02:47:53;;;;;;;;;;;;;;;;;;5033220;28;20396;-76
2023/01/18 02:50:19;;;;;;;;;;;;;;;;;;5033313;28;19909;-75
2023/01/18 02:52:46;;;;;;;;;;;;;;;;;;5032022;28;20365;-76
2023/01/18 02:55:12;;;;;;;;;;;;;;;;;;5033557;28;19954;-76
2023/01/18 02:57:37;;;;;;;;;;;;;;;;;;5033349;28;20003;-76
2023/01/18 03:00:03;;;;;;;;;;;;;;;;;;5033258;28;19952;-76
2023/01/18 03:02:29;;;;;;;;;;;;;;;;;;5033249;28;19963;-76
2023/01/18 03:04:55;;;;;;;;;;;;;;;;;;5033289;28;20442;-76
2023/01/18 03:07:21;;;;;;;;;;;;;;;;;;5033207;28;19932;-76
2023/01/18 03:09:47;;;;;;;;;;;;;;;;;;5033125;28;19910;-76
2023/01/18 03:12:14;;;;;;;;;;;;;;;;;;5033353;28;19913;-76
2023/01/18 03:14:40;;;;;;;;;;;;;;;;;;5033389;28;20369;-76
2023/01/18 03:17:05;;;;;;;;;;;;;;;;;;5035908;28;19909;-76
2023/01/18 03:22:16;;;;;;;;;;;;;;;;;;5036419;28;19920;-76
2023/01/18 03:24:42;;;;;;;;;;;;;;;;;;5036540;28;19913;-76
2023/01/18 03:35:25;;;;;;;;;;;;;;;;;;5036176;28;19974;-76
2023/01/18 03:37:53;;;;;;;;;;;;;;;;;;5036468;28;19909;-76
2023/01/18 03:40:18;;;;;;;;;;;;;;;;;;5036209;28;19921;-76
2023/01/18 03:42:44;;;;;;;;;;;;;;;;;;5036400;28;19909;-77
2023/01/18 03:45:10;;;;;;;;;;;;;;;;;;5036144;28;19913;-77
2023/01/18 03:47:36;;;;;;;;;;;;;;;;;;5036248;28;20391;-76
2023/01/18 03:50:02;;;;;;;;;;;;;;;;;;5034866;28;20000;-77
2023/01/18 03:52:28;;;;;;;;;;;;;;;;;;5034784;28;19944;-77
2023/01/18 03:54:54;;;;;;;;;;;;;;;;;;5036057;28;19909;-77
2023/01/18 03:57:20;;;;;;;;;;;;;;;;;;5036017;28;19916;-76
2023/01/18 03:59:46;;;;;;;;;;;;;;;;;;5035977;28;19913;-76
2023/01/18 04:02:12;;;;;;;;;;;;;;;;;;5035919;28;19909;-76
2023/01/18 04:04:38;;;;;;;;;;;;;;;;;;5035985;28;19913;-76
2023/01/18 04:07:04;;;;;;;;;;;;;;;;;;5036039;28;20285;-76
2023/01/18 04:09:30;;;;;;;;;;;;;;;;;;5035845;28;19963;-76
2023/01/18 04:11:56;;;;;;;;;;;;;;;;;;5035761;28;19917;-76
2023/01/18 04:14:22;;;;;;;;;;;;;;;;;;5036039;28;19909;-77
2023/01/18 04:16:48;;;;;;;;;;;;;;;;;;5035666;28;19992;-76
2023/01/18 04:19:14;;;;;;;;;;;;;;;;;;5035943;28;19948;-77
2023/01/18 04:21:40;;;;;;;;;;;;;;;;;;5035593;28;19916;-76
2023/01/18 04:24:05;;;;;;;;;;;;;;;;;;5034172;28;20292;-76
2023/01/18 04:26:34;;;;;;;;;;;;;;;;;;5035748;28;20388;-76
2023/01/18 04:29:00;;;;;;;;;;;;;;;;;;5034634;28;19913;-76
2023/01/18 04:31:26;;;;;;;;;;;;;;;;;;5035391;28;20000;-77
2023/01/18 04:33:52;;;;;;;;;;;;;;;;;;5035349;28;19952;-76
2023/01/18 04:36:18;;;;;;;;;;;;;;;;;;5035230;28;20285;-76
2023/01/18 04:38:44;;;;;;;;;;;;;;;;;;5035173;28;20388;-77
2023/01/18 04:41:10;;;;;;;;;;;;;;;;;;5035054;28;19922;-76
2023/01/18 04:43:36;;;;;;;;;;;;;;;;;;5035176;28;19917;-76
2023/01/18 04:46:02;;;;;;;;;;;;;;;;;;5035056;28;20004;-76
2023/01/18 04:48:28;;;;;;;;;;;;;;;;;;5033765;28;19917;-76
2023/01/18 04:50:54;;;;;;;;;;;;;;;;;;5035078;28;19909;-77
2023/01/18 04:53:20;;;;;;;;;;;;;;;;;;5034961;28;19920;-76
2023/01/18 04:55:46;;;;;;;;;;;;;;;;;;5034925;28;19909;-77
2023/01/18 04:58:12;;;;;;;;;;;;;;;;;;5034875;28;19917;-76
2023/01/18 05:00:40;;;;;;;;;;;;;;;;;;5035009;28;19909;-75
2023/01/18 05:03:06;;;;;;;;;;;;;;;;;;5035318;28;19913;-76
2023/01/18 05:05:32;;;;;;;;;;;;;;;;;;5034763;28;19913;-77
2023/01/18 05:07:58;;;;;;;;;;;;;;;;;;5033382;28;20002;-77
2023/01/18 05:10:24;;;;;;;;;;;;;;;;;;5034626;28;19909;-76
2023/01/18 05:12:50;;;;;;;;;;;;;;;;;;5034582;28;20054;-76
2023/01/18 05:15:17;;;;;;;;;;;;;;;;;;5034746;28;20312;-76
2023/01/18 05:17:43;;;;;;;;;;;;;;;;;;5034489;28;20051;-76
2023/01/18 05:20:08;;;;;;;;;;;;;;;;;;5034471;28;20388;-76
2023/01/18 05:22:36;;;;;;;;;;;;;;;;;;5034738;28;19967;-76
2023/01/18 05:25:02;;;;;;;;;;;;;;;;;;5034580;28;19963;-76
2023/01/18 05:27:27;;;;;;;;;;;;;;;;;;5034392;28;19909;-76
2023/01/18 05:29:53;;;;;;;;;;;;;;;;;;5034284;28;19910;-76
2023/01/18 05:32:19;;;;;;;;;;;;;;;;;;5034446;28;19967;-76
2023/01/18 05:34:45;;;;;;;;;;;;;;;;;;5034189;28;20336;-76
2023/01/18 05:37:11;;;;;;;;;;;;;;;;;;5034242;28;20280;-76
2023/01/18 05:39:37;;;;;;;;;;;;;;;;;;5032488;28;19922;-76
2023/01/18 05:42:04;;;;;;;;;;;;;;;;;;5034115;28;19909;-76
2023/01/18 05:44:30;;;;;;;;;;;;;;;;;;5032709;28;20335;-77
2023/01/18 05:46:56;;;;;;;;;;;;;;;;;;5034029;28;19916;-76
2023/01/18 05:49:22;;;;;;;;;;;;;;;;;;5032852;28;19910;-76
2023/01/18 05:51:48;;;;;;;;;;;;;;;;;;5033928;28;20380;-76
2023/01/18 05:54:14;;;;;;;;;;;;;;;;;;5033849;28;20276;-76
2023/01/18 05:56:40;;;;;;;;;;;;;;;;;;5034159;28;20380;-77
2023/01/18 05:59:06;;;;;;;;;;;;;;;;;;5032512;28;20446;-76
2023/01/18 06:01:32;;;;;;;;;;;;;;;;;;5033916;28;19910;-76
2023/01/18 06:03:58;;;;;;;;;;;;;;;;;;5033779;28;20319;-78
2023/01/18 06:06:24;;;;;;;;;;;;;;;;;;5034252;28;20348;-76
2023/01/18 06:08:50;;;;;;;;;;;;;;;;;;5033748;28;19909;-76
2023/01/18 06:11:16;;;;;;;;;;;;;;;;;;5033831;28;19936;-76
2023/01/18 06:13:42;;;;;;;;;;;;;;;;;;5033681;28;20313;-76
2023/01/18 06:16:08;;;;;;;;;;;;;;;;;;5032371;28;19941;-76
2023/01/18 06:18:34;;;;;;;;;;;;;;;;;;5033689;28;19924;-76
2023/01/18 06:21:00;;;;;;;;;;;;;;;;;;5034061;28;19909;-76
2023/01/18 06:23:26;;;;;;;;;;;;;;;;;;5033659;28;19932;-75
2023/01/18 06:25:52;;;;;;;;;;;;;;;;;;5033528;28;20285;-76
2023/01/18 06:28:18;;;;;;;;;;;;;;;;;;5033631;28;20376;-75
2023/01/18 06:30:46;;;;;;;;;;;;;;;;;;5033735;28;19909;-77
2023/01/18 06:33:12;;;;;;;;;;;;;;;;;;5033792;28;20361;-76
2023/01/18 06:35:38;;;;;;;;;;;;;;;;;;5033454;28;19909;-76
2023/01/18 06:38:04;;;;;;;;;;;;;;;;;;5033486;28;20001;-76
2023/01/18 06:40:30;;;;;;;;;;;;;;;;;;5033096;28;19961;-76
2023/01/18 06:42:56;;;;;;;;;;;;;;;;;;5033441;28;19959;-76
2023/01/18 06:45:24;;;;;;;;;;;;;;;;;;5031970;28;20004;-76
2023/01/18 06:47:50;;;;;;;;;;;;;;;;;;5033592;28;19909;-76
2023/01/18 06:50:16;;;;;;;;;;;;;;;;;;5033317;28;19909;-76
2023/01/18 06:52:42;;;;;;;;;;;;;;;;;;5037158;28;20039;-76
2023/01/18 06:55:08;;;;;;;;;;;;;;;;;;5037368;28;20427;-76
2023/01/18 06:57:34;;;;;;;;;;;;;;;;;;5035742;28;19913;-77
2023/01/18 07:00:04;;;;;;;;;;;;;;;;;;5037098;28;19994;-77
2023/01/18 07:02:30;;;;;;;;;;;;;;;;;;5035779;28;19909;-77
2023/01/18 07:04:56;;;;;;;;;;;;;;;;;;5037342;28;19924;-77
2023/01/18 07:07:22;;;;;;;;;;;;;;;;;;5036970;28;19909;-77
2023/01/18 07:09:48;;;;;;;;;;;;;;;;;;5035593;28;19909;-77
2023/01/18 07:12:14;;;;;;;;;;;;;;;;;;5036916;28;19917;-77
2023/01/18 07:14:40;;;;;;;;;;;;;;;;;;5037028;28;19921;-77
2023/01/18 07:17:07;;;;;;;;;;;;;;;;;;5035604;28;19909;-76
2023/01/18 07:19:33;;;;;;;;;;;;;;;;;;5036743;28;20400;-77
2023/01/18 07:21:59;;;;;;;;;;;;;;;;;;5035403;28;19924;-76
2023/01/18 07:24:25;;;;;;;;;;;;;;;;;;5035280;28;20016;-77
2023/01/18 07:26:51;;;;;;;;;;;;;;;;;;5036597;28;19909;-77
2023/01/18 07:29:17;;;;;;;;;;;;;;;;;;5036944;28;19921;-77
2023/01/18 07:31:43;;;;;;;;;;;;;;;;;;5036550;28;19916;-77
2023/01/18 07:34:09;;;;;;;;;;;;;;;;;;5036498;28;19998;-76
2023/01/18 07:36:37;;;;;;;;;;;;;;;;;;5036737;28;19913;-77
2023/01/18 07:39:03;;;;;;;;;;;;;;;;;;5036089;28;19924;-77
2023/01/18 07:41:29;;;;;;;;;;;;;;;;;;5036558;28;19913;-76
2023/01/18 07:43:55;;;;;;;;;;;;;;;;;;5036236;28;19913;-77
2023/01/18 07:46:22;;;;;;;;;;;;;;;;;;5036259;28;19909;-77
2023/01/18 07:48:48;;;;;;;;;;;;;;;;;;5036226;28;19910;-77
2023/01/18 07:51:14;;;;;;;;;;;;;;;;;;5036191;28;20326;-77
2023/01/18 07:53:40;;;;;;;;;;;;;;;;;;5034832;28;19909;-77
2023/01/18 07:56:06;;;;;;;;;;;;;;;;;;5036184;28;20032;-77
2023/01/18 07:58:32;;;;;;;;;;;;;;;;;;5036046;28;19951;-77
2023/01/18 08:00:58;;;;;;;;;;;;;;;;;;5034743;28;20266;-77
2023/01/18 08:03:24;;;;;;;;;;;;;;;;;;5034630;28;19910;-77
2023/01/18 08:05:50;;;;;;;;;;;;;;;;;;5035959;28;19909;-77
2023/01/18 08:08:17;;;;;;;;;;;;;;;;;;5035831;28;19916;-77
2023/01/18 08:10:43;;;;;;;;;;;;;;;;;;5036213;28;19999;-77
2023/01/18 08:13:09;;;;;;;;;;;;;;;;;;5034462;28;19955;-77
2023/01/18 08:15:35;;;;;;;;;;;;;;;;;;5035734;28;19913;-76
2023/01/18 08:18:01;;;;;;;;;;;;;;;;;;5034393;28;20289;-76
2023/01/18 08:20:27;;;;;;;;;;;;;;;;;;5035611;28;19909;-77
2023/01/18 08:22:53;;;;;;;;;;;;;;;;;;5035580;28;19909;-77
2023/01/18 08:25:19;;;;;;;;;;;;;;;;;;5035632;28;19913;-77
2023/01/18 08:27:45;;;;;;;;;;;;;;;;;;5035490;28;19958;-78
2023/01/18 08:30:12;;;;;;;;;;;;;;;;;;5035536;28;20048;-76
2023/01/18 08:32:38;;;;;;;;;;;;;;;;;;5035437;28;19909;-77
2023/01/18 08:35:03;;;;;;;;;;;;;;;;;;5035382;28;19916;-77
2023/01/18 08:37:30;;;;;;;;;;;;;;;;;;5035645;28;19916;-77
2023/01/18 08:39:55;;;;;;;;;;;;;;;;;;5034964;28;19928;-77
2023/01/18 08:42:21;;;;;;;;;;;;;;;;;;5033946;28;19909;-77
2023/01/18 08:44:47;;;;;;;;;;;;;;;;;;5033805;28;20320;-77
2023/01/18 08:47:14;;;;;;;;;;;;;;;;;;5033823;28;20384;-77
2023/01/18 08:49:40;;;;;;;;;;;;;;;;;;5035603;28;19916;-77
2023/01/18 08:52:09;;;;;;;;;;;;;;;;;;5035019;28;19913;-77
2023/01/18 08:54:35;;;;;;;;;;;;;;;;;;5035056;28;20369;-77
2023/01/18 08:57:02;;;;;;;;;;;;;;;;;;5033404;28;19963;-76
2023/01/18 08:59:28;;;;;;;;;;;;;;;;;;5034844;28;20289;-77
2023/01/18 09:01:54;;;;;;;;;;;;;;;;;;5035059;28;19932;-77
2023/01/18 09:04:21;;;;;;;;;;;;;;;;;;5033680;28;19913;-77
2023/01/18 09:06:49;;;;;;;;;;;;;;;;;;5034786;28;19944;-77
2023/01/18 09:09:15;;;;;;;;;;;;;;;;;;5034928;28;19909;-77
2023/01/18 09:11:41;;;;;;;;;;;;;;;;;;5034677;28;20023;-77
2023/01/18 09:14:07;;;;;;;;;;;;;;;;;;5034411;28;19949;-77
2023/01/18 09:16:33;;;;;;;;;;;;;;;;;;5034658;28;19909;-77
2023/01/18 09:18:59;;;;;;;;;;;;;;;;;;5034516;28;19909;-77
2023/01/18 09:21:26;;;;;;;;;;;;;;;;;;5034645;28;19909;-77
2023/01/18 09:23:52;;;;;;;;;;;;;;;;;;5034383;28;19913;-77
2023/01/18 09:26:19;;;;;;;;;;;;;;;;;;5032891;28;19916;-77
2023/01/18 09:28:45;;;;;;;;;;;;;;;;;;5034371;28;20411;-77
2023/01/18 09:31:11;;;;;;;;;;;;;;;;;;5034316;28;19953;-77
2023/01/18 09:33:38;;;;;;;;;;;;;;;;;;5034233;28;20258;-77
2023/01/18 09:36:04;;;;;;;;;;;;;;;;;;5034520;28;20345;-77
2023/01/18 09:38:30;;;;;;;;;;;;;;;;;;5034190;28;19948;-77
2023/01/18 09:40:56;;;;;;;;;;;;;;;;;;5032432;28;19925;-77
2023/01/18 09:43:22;;;;;;;;;;;;;;;;;;5034076;28;20008;-78
2023/01/18 09:45:48;;;;;;;;;;;;;;;;;;5034100;28;19909;-77
2023/01/18 09:48:14;;;;;;;;;;;;;;;;;;5034010;28;19932;-77
2023/01/18 09:50:43;;;;;;;;;;;;;;;;;;5034071;28;19945;-77
2023/01/18 09:53:10;;;;;;;;;;;;;;;;;;5033951;28;19959;-77
2023/01/18 09:55:35;;;;;;;;;;;;;;;;;;5034240;28;19990;-77
2023/01/18 09:58:01;;;;;;;;;;;;;;;;;;5034097;28;19940;-77
2023/01/18 10:00:27;;;;;;;;;;;;;;;;;;5033847;28;19909;-77
2023/01/18 10:02:54;;;;;;;;;;;;;;;;;;5033857;28;19916;-78
2023/01/18 10:05:20;;;;;;;;;;;;;;;;;;5034143;28;19913;-77
2023/01/18 10:07:46;;;;;;;;;;;;;;;;;;5033903;28;19945;-77
2023/01/18 10:10:12;;;;;;;;;;;;;;;;;;5033752;28;19916;-77
2023/01/18 10:12:38;;;;;;;;;;;;;;;;;;5033757;28;19909;-77
2023/01/18 10:15:04;;;;;;;;;;;;;;;;;;5033704;28;19999;-77
2023/01/18 10:17:30;;;;;;;;;;;;;;;;;;5033832;28;19950;-78
2023/01/18 10:19:56;;;;;;;;;;;;;;;;;;5033724;28;19909;-78
2023/01/18 10:22:22;;;;;;;;;;;;;;;;;;5033603;28;20289;-78
2023/01/18 10:24:48;;;;;;;;;;;;;;;;;;5033548;28;19913;-78
2023/01/18 10:27:14;;;;;;;;;;;;;;;;;;5036931;28;19909;-78
2023/01/18 10:29:40;;;;;;;;;;;;;;;;;;5038294;28;19944;-77
2023/01/18 10:32:06;;;;;;;;;;;;;;;;;;5037661;28;19959;-77
2023/01/18 10:34:32;;;;;;;;;;;;;;;;;;5037736;28;19909;-77
2023/01/18 10:36:58;;;;;;;;;;;;;;;;;;5037550;28;19909;-77
2023/01/18 10:39:24;;;;;;;;;;;;;;;;;;5037326;28;19917;-77
2023/01/18 10:41:50;;;;;;;;;;;;;;;;;;5037871;28;20379;-77
2023/01/18 10:44:16;;;;;;;;;;;;;;;;;;5037366;28;19913;-77
2023/01/18 10:46:43;;;;;;;;;;;;;;;;;;5037529;28;20343;-77
2023/01/18 10:49:09;;;;;;;;;;;;;;;;;;5037327;28;19909;-77
2023/01/18 10:51:35;;;;;;;;;;;;;;;;;;5037479;28;19963;-77
2023/01/18 10:54:01;;;;;;;;;;;;;;;;;;5037278;28;19913;-77
2023/01/18 10:56:26;;;;;;;;;;;;;;;;;;5037257;28;19978;-77
2023/01/18 10:58:52;;;;;;;;;;;;;;;;;;5037139;28;20309;-77
2023/01/18 11:01:19;;;;;;;;;;;;;;;;;;5037065;28;19916;-77
2023/01/18 11:03:45;;;;;;;;;;;;;;;;;;5037244;28;19913;-77
2023/01/18 11:06:10;;;;;;;;;;;;;;;;;;5037037;28;19909;-77
2023/01/18 11:08:36;;;;;;;;;;;;;;;;;;5036995;28;19944;-77
2023/01/18 11:11:05;;;;;;;;;;;;;;;;;;5035627;28;19996;-76
2023/01/18 11:13:31;;;;;;;;;;;;;;;;;;5037297;28;19917;-77
2023/01/18 11:15:57;;;;;;;;;;;;;;;;;;5036884;28;20288;-77
2023/01/18 11:18:23;;;;;;;;;;;;;;;;;;5036903;28;20004;-77
2023/01/18 11:20:49;;;;;;;;;;;;;;;;;;5036778;28;19956;-77
2023/01/18 11:23:16;;;;;;;;;;;;;;;;;;5037172;28;19909;-76
2023/01/18 11:25:44;;;;;;;;;;;;;;;;;;5036613;28;19935;-77
2023/01/18 11:28:10;;;;;;;;;;;;;;;;;;5036645;28;19917;-77
2023/01/18 11:30:36;;;;;;;;;;;;;;;;;;5036713;28;20380;-76
2023/01/18 11:33:02;;;;;;;;;;;;;;;;;;5036468;28;19909;-77
2023/01/18 11:35:28;;;;;;;;;;;;;;;;;;5036366;28;19909;-77
2023/01/18 11:37:54;;;;;;;;;;;;;;;;;;5036325;28;19924;-77
2023/01/18 11:40:21;;;;;;;;;;;;;;;;;;5036216;28;19921;-77
2023/01/18 11:42:46;;;;;;;;;;;;;;;;;;5035090;28;19959;-76
2023/01/18 11:45:13;;;;;;;;;;;;;;;;;;5036204;28;19913;-77
2023/01/18 11:47:39;;;;;;;;;;;;;;;;;;5036362;28;20361;-77
2023/01/18 11:50:05;;;;;;;;;;;;;;;;;;5036266;28;19963;-77
2023/01/18 11:52:31;;;;;;;;;;;;;;;;;;5036166;28;19909;-76
2023/01/18 11:54:57;;;;;;;;;;;;;;;;;;5036561;28;19913;-77
2023/01/18 11:57:23;;;;;;;;;;;;;;;;;;5036119;28;19963;-77
2023/01/18 11:59:49;;;;;;;;;;;;;;;;;;5036055;28;20319;-78
2023/01/18 12:02:15;;;;;;;;;;;;;;;;;;5036148;28;20001;-77
2023/01/18 12:04:41;;;;;;;;;;;;;;;;;;5034557;28;20044;-77
2023/01/18 12:07:07;;;;;;;;;;;;;;;;;;5035916;28;19913;-78
2023/01/18 12:09:33;;;;;;;;;;;;;;;;;;5035968;28;19910;-76
2023/01/18 12:11:59;;;;;;;;;;;;;;;;;;5035855;28;19909;-76
2023/01/18 12:14:25;;;;;;;;;;;;;;;;;;5036241;28;19909;-77
2023/01/18 12:16:51;;;;;;;;;;;;;;;;;;5035731;28;19916;-76
2023/01/18 12:19:16;;;;;;;;;;;;;;;;;;5036034;28;19914;-75
2023/01/18 12:21:42;;;;;;;;;;;;;;;;;;5035952;28;20004;-77
2023/01/18 12:24:08;;;;;;;;;;;;;;;;;;5035505;28;19959;-77
2023/01/18 12:26:34;;;;;;;;;;;;;;;;;;5035622;28;19913;-77
2023/01/18 12:29:00;;;;;;;;;;;;;;;;;;5035507;28;19909;-77
2023/01/18 12:31:26;;;;;;;;;;;;;;;;;;5035469;28;19947;-77
2023/01/18 12:33:53;;;;;;;;;;;;;;;;;;5035715;28;19912;-77
2023/01/18 12:36:19;;;;;;;;;;;;;;;;;;5035358;28;19909;-77
2023/01/18 12:38:45;;;;;;;;;;;;;;;;;;5033985;28;19914;-77
2023/01/18 12:41:11;;;;;;;;;;;;;;;;;;5035492;28;19921;-78
2023/01/18 12:43:37;;;;;;;;;;;;;;;;;;5035320;28;19920;-77
2023/01/18 12:46:03;;;;;;;;;;;;;;;;;;5035256;28;19932;-77
2023/01/18 12:48:29;;;;;;;;;;;;;;;;;;5034426;28;20370;-77
2023/01/18 12:50:55;;;;;;;;;;;;;;;;;;5035183;28;19916;-77
2023/01/18 12:53:21;;;;;;;;;;;;;;;;;;5035027;28;19990;-77
2023/01/18 12:55:47;;;;;;;;;;;;;;;;;;5035043;28;19913;-77
2023/01/18 12:58:13;;;;;;;;;;;;;;;;;;5034974;28;19959;-77
2023/01/18 13:00:39;;;;;;;;;;;;;;;;;;5034888;28;19923;-77
2023/01/18 13:03:05;;;;;;;;;;;;;;;;;;5034867;28;19959;-77
2023/01/18 13:05:33;;;;;;;;;;;;;;;;;;5035018;28;19913;-77
2023/01/18 13:07:59;;;;;;;;;;;;;;;;;;5034744;28;19916;-77
2023/01/18 13:10:25;;;;;;;;;;;;;;;;;;5033432;28;20378;-76
2023/01/18 13:12:51;;;;;;;;;;;;;;;;;;5033360;28;20372;-76
2023/01/18 13:15:17;;;;;;;;;;;;;;;;;;5035145;28;20360;-77
2023/01/18 13:17:43;;;;;;;;;;;;;;;;;;5034580;28;19909;-77
2023/01/18 13:20:09;;;;;;;;;;;;;;;;;;5034497;28;19976;-77
2023/01/18 13:22:35;;;;;;;;;;;;;;;;;;5034638;28;19913;-77
2023/01/18 13:25:01;;;;;;;;;;;;;;;;;;5034404;28;19913;-77
2023/01/18 13:27:27;;;;;;;;;;;;;;;;;;5034439;28;19920;-77
2023/01/18 13:29:53;;;;;;;;;;;;;;;;;;5033116;28;19909;-76
2023/01/18 13:32:19;;;;;;;;;;;;;;;;;;5034306;28;19963;-77
2023/01/18 13:34:47;;;;;;;;;;;;;;;;;;5034824;28;19963;-78
2023/01/18 13:37:13;;;;;;;;;;;;;;;;;;5034256;28;19971;-77
2023/01/18 13:39:38;;;;;;;;;;;;;;;;;;5032514;28;20389;-75
2023/01/18 13:42:06;;;;;;;;;;;;;;;;;;5032869;28;19913;-78
2023/01/18 13:44:32;;;;;;;;;;;;;;;;;;5034006;28;19920;-76
2023/01/18 13:46:59;;;;;;;;;;;;;;;;;;5034101;28;19956;-76
2023/01/18 13:49:25;;;;;;;;;;;;;;;;;;5034043;28;19917;-76
2023/01/18 13:51:52;;;;;;;;;;;;;;;;;;5034186;28;19916;-77
2023/01/18 13:54:18;;;;;;;;;;;;;;;;;;5033978;28;20008;-76
2023/01/18 13:56:44;;;;;;;;;;;;;;;;;;5034055;28;20010;-76
2023/01/18 13:59:10;;;;;;;;;;;;;;;;;;5033864;28;19999;-77
2023/01/18 14:01:36;;;;;;;;;;;;;;;;;;5033876;28;20342;-77
2023/01/18 14:04:02;;;;;;;;;;;;;;;;;;5034143;28;19940;-77
2023/01/18 14:06:28;;;;;;;;;;;;;;;;;;5033889;28;20095;-77
2023/01/18 14:08:54;;;;;;;;;;;;;;;;;;5032503;28;19916;-77
2023/01/18 14:11:20;;;;;;;;;;;;;;;;;;5033990;28;19913;-76
2023/01/18 14:13:49;;;;;;;;;;;;;;;;;;5032460;28;20369;-77
2023/01/18 14:16:15;;;;;;;;;;;;;;;;;;5033702;28;19913;-76
2023/01/18 14:18:41;;;;;;;;;;;;;;;;;;5032380;28;20262;-76
2023/01/18 14:21:06;;;;;;;;;;;;;;;;;;5033663;28;19917;-76
2023/01/18 14:23:32;;;;;;;;;;;;;;;;;;5032301;28;20000;-77
2023/01/18 14:25:59;;;;;;;;;;;;;;;;;;5033633;28;19944;-77
2023/01/18 14:28:25;;;;;;;;;;;;;;;;;;5033682;28;19909;-76
2023/01/18 14:30:51;;;;;;;;;;;;;;;;;;5033550;28;19944;-77
2023/01/18 14:33:16;;;;;;;;;;;;;;;;;;5032246;28;20298;-77
2023/01/18 14:35:42;;;;;;;;;;;;;;;;;;5032230;28;20384;-77
2023/01/18 14:38:08;;;;;;;;;;;;;;;;;;5033720;28;19909;-76
2023/01/18 14:40:35;;;;;;;;;;;;;;;;;;5031814;28;19931;-77
2023/01/18 14:43:04;;;;;;;;;;;;;;;;;;5033419;28;19910;-77
2023/01/18 14:45:30;;;;;;;;;;;;;;;;;;5033338;28;19967;-76
2023/01/18 14:47:56;;;;;;;;;;;;;;;;;;5033416;28;19913;-77
2023/01/18 14:50:22;;;;;;;;;;;;;;;;;;5033385;28;19916;-77
2023/01/18 14:52:48;;;;;;;;;;;;;;;;;;5033521;28;20000;-77
2023/01/18 14:55:15;;;;;;;;;;;;;;;;;;5033366;28;20352;-77
2023/01/18 14:57:41;;;;;;;;;;;;;;;;;;5033332;28;19909;-77
2023/01/18 15:00:07;;;;;;;;;;;;;;;;;;5033644;28;20396;-76
2023/01/18 15:02:34;;;;;;;;;;;;;;;;;;5031429;28;19910;-77
2023/01/18 15:05:00;;;;;;;;;;;;;;;;;;5010410;28;20423;-77
2023/01/18 15:07:25;;;;;;;;;;;;;;;;;;5032683;28;19909;-78
2023/01/18 15:09:51;;;;;;;;;;;;;;;;;;5031500;28;19909;-77
2023/01/18 15:12:18;;;;;;;;;;;;;;;;;;5033327;28;19913;-77
2023/01/18 15:14:44;;;;;;;;;;;;;;;;;;5036050;28;19931;-77
2023/01/18 15:17:10;;;;;;;;;;;;;;;;;;5036658;28;19910;-77
2023/01/18 15:19:35;;;;;;;;;;;;;;;;;;5036172;28;20332;-77
2023/01/18 15:22:03;;;;;;;;;;;;;;;;;;5036537;28;20324;-77
2023/01/18 15:24:29;;;;;;;;;;;;;;;;;;5035757;28;19916;-77
2023/01/18 15:26:55;;;;;;;;;;;;;;;;;;5036462;28;19985;-77
2023/01/18 15:29:20;;;;;;;;;;;;;;;;;;5036253;28;19913;-76
2023/01/18 15:31:47;;;;;;;;;;;;;;;;;;5036018;28;19915;-76
2023/01/18 15:34:14;;;;;;;;;;;;;;;;;;5049204;28;20376;-77
2023/01/18 15:36:40;;;;;;;;;;;;;;;;;;5056047;28;20374;-77
2023/01/18 15:39:06;;;;;;;;;;;;;;;;;;5055840;28;19909;-76
2023/01/18 15:41:32;;;;;;;;;;;;;;;;;;5055870;28;19931;-76
2023/01/18 15:43:58;;;;;;;;;;;;;;;;;;5055651;28;20376;-77
2023/01/18 15:46:24;;;;;;;;;;;;;;;;;;5055898;28;19999;-76
2023/01/18 15:48:50;;;;;;;;;;;;;;;;;;5055871;28;20289;-76
2023/01/18 15:51:18;;;;;;;;;;;;;;;;;;5055867;28;20337;-77
2023/01/18 15:53:44;;;;;;;;;;;;;;;;;;5055303;28;19909;-77
2023/01/18 15:56:10;;;;;;;;;;;;;;;;;;5054380;28;19909;-77
2023/01/18 15:58:36;;;;;;;;;;;;;;;;;;5037035;28;19963;-77
2023/01/18 16:01:02;;;;;;;;;;;;;;;;;;5044382;28;19910;-77
2023/01/18 16:03:28;;;;;;;;;;;;;;;;;;5023626;28;19923;-76
2023/01/18 16:05:54;;;;;;;;;;;;;;;;;;5055404;28;19920;-76
2023/01/18 16:08:21;;;;;;;;;;;;;;;;;;5048933;28;19909;-77
2023/01/18 16:10:47;;;;;;;;;;;;;;;;;;5035616;28;19910;-77
2023/01/18 16:13:12;;;;;;;;;;;;;;;;;;5034009;28;19917;-76
2023/01/18 16:15:39;;;;;;;;;;;;;;;;;;5035606;28;19915;-76
2023/01/18 16:18:05;;;;;;;;;;;;;;;;;;5033999;28;19995;-77
2023/01/18 16:20:31;;;;;;;;;;;;;;;;;;5035312;28;19909;-77
2023/01/18 16:22:57;;;;;;;;;;;;;;;;;;5035756;28;20008;-77
2023/01/18 16:25:24;;;;;;;;;;;;;;;;;;5054690;28;20004;-76
2023/01/18 16:27:50;;;;;;;;;;;;;;;;;;5055261;28;19908;-76
2023/01/18 16:30:16;;;;;;;;;;;;;;;;;;5054858;28;19923;-77
2023/01/18 16:32:42;;;;;;;;;;;;;;;;;;5055102;28;19943;-77
2023/01/18 16:35:08;;;;;;;;;;;;;;;;;;5054418;28;19916;-77
2023/01/18 16:37:34;;;;;;;;;;;;;;;;;;5053675;28;19908;-77
2023/01/18 16:40:00;;;;;;;;;;;;;;;;;;5054661;28;19921;-77
2023/01/18 16:42:26;;;;;;;;;;;;;;;;;;5054760;28;20335;-77
2023/01/18 16:44:52;;;;;;;;;;;;;;;;;;5037424;28;19998;-77
2023/01/18 16:47:20;;;;;;;;;;;;;;;;;;5034263;28;20202;-77
2023/01/18 16:49:46;;;;;;;;;;;;;;;;;;5033569;28;19909;-77
2023/01/18 16:52:12;;;;;;;;;;;;;;;;;;5034710;28;19936;-77
2023/01/18 16:54:38;;;;;;;;;;;;;;;;;;5034553;28;20027;-77
2023/01/18 16:57:04;;;;;;;;;;;;;;;;;;5034967;28;19909;-76
2023/01/18 16:59:30;;;;;;;;;;;;;;;;;;5034586;28;19916;-77
2023/01/18 17:01:56;;;;;;;;;;;;;;;;;;5034642;28;19909;-77
2023/01/18 17:04:25;;;;;;;;;;;;;;;;;;5016009;28;19970;-76
2023/01/18 17:06:51;;;;;;;;;;;;;;;;;;5033100;28;20365;-77
2023/01/18 17:09:17;;;;;;;;;;;;;;;;;;5033112;28;19920;-77
2023/01/18 17:11:43;;;;;;;;;;;;;;;;;;5033108;28;19909;-76
2023/01/18 17:14:09;;;;;;;;;;;;;;;;;;5043945;28;19915;-77